sensor_id;sensor_type;location;lat;lon;timestamp;P1;durP1;ratioP1;P2;durP2;ratioP2
47894;SDS011;33653;52.302;8.134;2022-12-29T00:01:10;2.97;;;2.67;;
47894;SDS011;33653;52.302;8.134;2022-12-29T00:03:38;3.25;;;2.65;;
47894;SDS011;33653;52.302;8.134;2022-12-29T00:06:06;2.10;;;1.90;;
47894;SDS011;33653;52.302;8.134;2022-12-29T00:08:34;3.30;;;2.53;;
47894;SDS011;33653;52.302;8.134;2022-12-29T00:11:08;4.13;;;2.05;;
47894;SDS011;33653;52.302;8.134;2022-12-29T00:13:38;3.55;;;2.63;;
47894;SDS011;33653;52.302;8.134;2022-12-29T00:16:24;2.65;;;2.45;;
47894;SDS011;33653;52.302;8.134;2022-12-29T00:18:53;2.90;;;2.60;;
47894;SDS011;33653;52.302;8.134;2022-12-29T00:21:22;2.75;;;2.55;;
47894;SDS011;33653;52.302;8.134;2022-12-29T00:24:10;2.47;;;2.28;;
47894;SDS011;33653;52.302;8.134;2022-12-29T00:29:48;3.08;;;2.83;;
47894;SDS011;33653;52.302;8.134;2022-12-29T00:32:34;3.72;;;2.65;;
47894;SDS011;33653;52.302;8.134;2022-12-29T00:35:33;3.25;;;2.40;;
47894;SDS011;33653;52.302;8.134;2022-12-29T00:38:10;2.65;;;2.45;;
47894;SDS011;33653;52.302;8.134;2022-12-29T00:40:57;3.42;;;2.70;;
47894;SDS011;33653;52.302;8.134;2022-12-29T00:43:44;2.90;;;2.55;;
47894;SDS011;33653;52.302;8.134;2022-12-29T00:46:33;2.70;;;2.33;;
47894;SDS011;33653;52.302;8.134;2022-12-29T00:49:02;2.15;;;1.95;;
47894;SDS011;33653;52.302;8.134;2022-12-29T00:51:50;4.50;;;2.03;;
47894;SDS011;33653;52.302;8.134;2022-12-29T00:54:18;2.53;;;2.30;;
47894;SDS011;33653;52.302;8.134;2022-12-29T00:56:47;2.33;;;2.10;;
47894;SDS011;33653;52.302;8.134;2022-12-29T00:59:17;3.25;;;2.28;;
47894;SDS011;33653;52.302;8.134;2022-12-29T01:01:45;3.47;;;2.38;;
47894;SDS011;33653;52.302;8.134;2022-12-29T01:04:14;3.70;;;2.47;;
47894;SDS011;33653;52.302;8.134;2022-12-29T01:06:44;2.92;;;2.60;;
47894;SDS011;33653;52.302;8.134;2022-12-29T01:09:15;2.47;;;2.22;;
47894;SDS011;33653;52.302;8.134;2022-12-29T01:12:03;2.38;;;2.17;;
47894;SDS011;33653;52.302;8.134;2022-12-29T01:14:31;2.35;;;2.15;;
47894;SDS011;33653;52.302;8.134;2022-12-29T01:17:00;2.60;;;2.40;;
47894;SDS011;33653;52.302;8.134;2022-12-29T01:19:28;3.20;;;2.17;;
47894;SDS011;33653;52.302;8.134;2022-12-29T01:24:28;3.17;;;2.38;;
47894;SDS011;33653;52.302;8.134;2022-12-29T01:26:55;2.22;;;2.03;;
47894;SDS011;33653;52.302;8.134;2022-12-29T01:29:23;1.67;;;1.50;;
47894;SDS011;33653;52.302;8.134;2022-12-29T01:31:51;2.00;;;1.75;;
47894;SDS011;33653;52.302;8.134;2022-12-29T01:34:19;2.08;;;1.90;;
47894;SDS011;33653;52.302;8.134;2022-12-29T01:36:47;2.58;;;1.65;;
47894;SDS011;33653;52.302;8.134;2022-12-29T01:39:15;2.30;;;1.67;;
47894;SDS011;33653;52.302;8.134;2022-12-29T01:41:44;1.20;;;1.10;;
47894;SDS011;33653;52.302;8.134;2022-12-29T01:50:12;1.35;;;1.25;;
47894;SDS011;33653;52.302;8.134;2022-12-29T01:52:56;1.30;;;1.20;;
47894;SDS011;33653;52.302;8.134;2022-12-29T01:55:28;1.77;;;1.48;;
47894;SDS011;33653;52.302;8.134;2022-12-29T01:58:02;1.30;;;1.20;;
47894;SDS011;33653;52.302;8.134;2022-12-29T02:00:33;1.30;;;1.20;;
47894;SDS011;33653;52.302;8.134;2022-12-29T02:03:01;1.73;;;1.60;;
47894;SDS011;33653;52.302;8.134;2022-12-29T02:05:40;1.98;;;1.48;;
47894;SDS011;33653;52.302;8.134;2022-12-29T02:08:21;1.75;;;1.65;;
47894;SDS011;33653;52.302;8.134;2022-12-29T02:10:53;1.50;;;1.40;;
47894;SDS011;33653;52.302;8.134;2022-12-29T02:13:26;2.13;;;1.92;;
47894;SDS011;33653;52.302;8.134;2022-12-29T02:24:05;3.00;;;2.00;;
47894;SDS011;33653;52.302;8.134;2022-12-29T02:32:31;1.33;;;1.20;;
47894;SDS011;33653;52.302;8.134;2022-12-29T02:35:25;1.80;;;1.40;;
47894;SDS011;33653;52.302;8.134;2022-12-29T02:39:02;1.35;;;1.25;;
47894;SDS011;33653;52.302;8.134;2022-12-29T02:46:48;1.65;;;1.55;;
47894;SDS011;33653;52.302;8.134;2022-12-29T02:49:28;1.27;;;1.20;;
47894;SDS011;33653;52.302;8.134;2022-12-29T02:54:33;1.90;;;1.80;;
47894;SDS011;33653;52.302;8.134;2022-12-29T02:59:50;1.42;;;1.33;;
47894;SDS011;33653;52.302;8.134;2022-12-29T03:02:28;1.60;;;1.50;;
47894;SDS011;33653;52.302;8.134;2022-12-29T03:05:13;1.70;;;1.60;;
47894;SDS011;33653;52.302;8.134;2022-12-29T03:08:06;1.15;;;1.05;;
47894;SDS011;33653;52.302;8.134;2022-12-29T03:13:39;3.47;;;1.25;;
47894;SDS011;33653;52.302;8.134;2022-12-29T03:16:35;1.30;;;1.20;;
47894;SDS011;33653;52.302;8.134;2022-12-29T03:19:19;1.70;;;1.40;;
47894;SDS011;33653;52.302;8.134;2022-12-29T03:22:02;2.55;;;1.45;;
47894;SDS011;33653;52.302;8.134;2022-12-29T03:27:41;1.42;;;1.33;;
47894;SDS011;33653;52.302;8.134;2022-12-29T03:30:15;6.95;;;1.60;;
47894;SDS011;33653;52.302;8.134;2022-12-29T03:32:54;2.55;;;1.52;;
47894;SDS011;33653;52.302;8.134;2022-12-29T03:35:26;1.13;;;1.00;;
47894;SDS011;33653;52.302;8.134;2022-12-29T03:40:48;0.90;;;0.90;;
47894;SDS011;33653;52.302;8.134;2022-12-29T03:43:19;0.82;;;0.82;;
47894;SDS011;33653;52.302;8.134;2022-12-29T03:45:47;0.98;;;0.98;;
47894;SDS011;33653;52.302;8.134;2022-12-29T03:48:15;2.10;;;0.80;;
47894;SDS011;33653;52.302;8.134;2022-12-29T03:50:45;0.90;;;0.90;;
47894;SDS011;33653;52.302;8.134;2022-12-29T03:53:14;0.70;;;0.70;;
47894;SDS011;33653;52.302;8.134;2022-12-29T03:55:42;0.95;;;0.77;;
47894;SDS011;33653;52.302;8.134;2022-12-29T03:58:11;0.82;;;0.82;;
47894;SDS011;33653;52.302;8.134;2022-12-29T04:00:50;1.60;;;1.50;;
47894;SDS011;33653;52.302;8.134;2022-12-29T04:03:18;1.00;;;1.00;;
47894;SDS011;33653;52.302;8.134;2022-12-29T04:05:46;0.80;;;0.80;;
47894;SDS011;33653;52.302;8.134;2022-12-29T04:08:14;1.00;;;1.00;;
47894;SDS011;33653;52.302;8.134;2022-12-29T04:10:43;0.90;;;0.90;;
47894;SDS011;33653;52.302;8.134;2022-12-29T04:13:13;0.80;;;0.80;;
47894;SDS011;33653;52.302;8.134;2022-12-29T04:15:42;0.95;;;0.82;;
47894;SDS011;33653;52.302;8.134;2022-12-29T04:18:11;1.38;;;1.00;;
47894;SDS011;33653;52.302;8.134;2022-12-29T04:20:39;2.80;;;1.17;;
47894;SDS011;33653;52.302;8.134;2022-12-29T04:23:32;1.48;;;0.80;;
47894;SDS011;33653;52.302;8.134;2022-12-29T04:26:06;1.20;;;1.10;;
47894;SDS011;33653;52.302;8.134;2022-12-29T04:28:45;0.90;;;0.90;;
47894;SDS011;33653;52.302;8.134;2022-12-29T04:31:42;0.90;;;0.90;;
47894;SDS011;33653;52.302;8.134;2022-12-29T04:34:10;0.70;;;0.70;;
47894;SDS011;33653;52.302;8.134;2022-12-29T04:36:38;0.85;;;0.82;;
47894;SDS011;33653;52.302;8.134;2022-12-29T04:39:06;3.70;;;0.93;;
47894;SDS011;33653;52.302;8.134;2022-12-29T04:41:35;2.17;;;0.93;;
47894;SDS011;33653;52.302;8.134;2022-12-29T04:44:06;1.65;;;0.93;;
47894;SDS011;33653;52.302;8.134;2022-12-29T04:46:52;0.80;;;0.80;;
47894;SDS011;33653;52.302;8.134;2022-12-29T04:49:42;1.80;;;1.00;;
47894;SDS011;33653;52.302;8.134;2022-12-29T04:52:27;0.70;;;0.70;;
47894;SDS011;33653;52.302;8.134;2022-12-29T04:54:55;1.08;;;0.90;;
47894;SDS011;33653;52.302;8.134;2022-12-29T04:57:24;2.60;;;1.00;;
47894;SDS011;33653;52.302;8.134;2022-12-29T04:59:55;0.93;;;0.90;;
47894;SDS011;33653;52.302;8.134;2022-12-29T05:02:24;0.85;;;0.85;;
47894;SDS011;33653;52.302;8.134;2022-12-29T05:04:53;0.65;;;0.65;;
47894;SDS011;33653;52.302;8.134;2022-12-29T05:07:22;1.00;;;0.90;;
47894;SDS011;33653;52.302;8.134;2022-12-29T05:09:52;0.70;;;0.70;;
47894;SDS011;33653;52.302;8.134;2022-12-29T05:12:20;0.60;;;0.60;;
47894;SDS011;33653;52.302;8.134;2022-12-29T05:14:54;2.92;;;0.90;;
47894;SDS011;33653;52.302;8.134;2022-12-29T05:17:22;1.00;;;0.90;;
47894;SDS011;33653;52.302;8.134;2022-12-29T05:19:50;0.90;;;0.90;;
47894;SDS011;33653;52.302;8.134;2022-12-29T05:22:18;0.80;;;0.80;;
47894;SDS011;33653;52.302;8.134;2022-12-29T05:24:47;0.75;;;0.75;;
47894;SDS011;33653;52.302;8.134;2022-12-29T05:27:15;0.70;;;0.70;;
47894;SDS011;33653;52.302;8.134;2022-12-29T05:29:48;1.73;;;0.70;;
47894;SDS011;33653;52.302;8.134;2022-12-29T05:32:16;0.80;;;0.80;;
47894;SDS011;33653;52.302;8.134;2022-12-29T05:34:45;0.65;;;0.65;;
47894;SDS011;33653;52.302;8.134;2022-12-29T05:37:13;0.70;;;0.70;;
47894;SDS011;33653;52.302;8.134;2022-12-29T05:39:41;0.50;;;0.50;;
47894;SDS011;33653;52.302;8.134;2022-12-29T05:42:10;0.60;;;0.60;;
47894;SDS011;33653;52.302;8.134;2022-12-29T05:44:58;2.28;;;0.85;;
47894;SDS011;33653;52.302;8.134;2022-12-29T05:47:44;0.70;;;0.70;;
47894;SDS011;33653;52.302;8.134;2022-12-29T05:50:38;0.65;;;0.65;;
47894;SDS011;33653;52.302;8.134;2022-12-29T05:53:12;0.70;;;0.70;;
47894;SDS011;33653;52.302;8.134;2022-12-29T05:55:42;1.48;;;0.80;;
47894;SDS011;33653;52.302;8.134;2022-12-29T05:58:15;2.97;;;1.35;;
47894;SDS011;33653;52.302;8.134;2022-12-29T06:00:43;0.75;;;0.75;;
47894;SDS011;33653;52.302;8.134;2022-12-29T06:03:12;3.60;;;0.90;;
47894;SDS011;33653;52.302;8.134;2022-12-29T06:05:41;1.02;;;0.60;;
47894;SDS011;33653;52.302;8.134;2022-12-29T06:08:11;0.65;;;0.65;;
47894;SDS011;33653;52.302;8.134;2022-12-29T06:10:39;1.02;;;0.73;;
47894;SDS011;33653;52.302;8.134;2022-12-29T06:13:08;0.95;;;0.95;;
47894;SDS011;33653;52.302;8.134;2022-12-29T06:15:39;0.77;;;0.77;;
47894;SDS011;33653;52.302;8.134;2022-12-29T06:18:08;0.50;;;0.50;;
47894;SDS011;33653;52.302;8.134;2022-12-29T06:20:45;0.70;;;0.70;;
47894;SDS011;33653;52.302;8.134;2022-12-29T06:23:15;0.70;;;0.70;;
47894;SDS011;33653;52.302;8.134;2022-12-29T06:25:46;0.80;;;0.80;;
47894;SDS011;33653;52.302;8.134;2022-12-29T06:28:15;0.60;;;0.60;;
47894;SDS011;33653;52.302;8.134;2022-12-29T06:30:44;0.47;;;0.47;;
47894;SDS011;33653;52.302;8.134;2022-12-29T06:33:12;4.03;;;0.90;;
47894;SDS011;33653;52.302;8.134;2022-12-29T06:35:41;0.60;;;0.60;;
47894;SDS011;33653;52.302;8.134;2022-12-29T06:38:14;0.55;;;0.55;;
47894;SDS011;33653;52.302;8.134;2022-12-29T06:40:42;0.70;;;0.70;;
47894;SDS011;33653;52.302;8.134;2022-12-29T06:43:23;1.23;;;1.00;;
47894;SDS011;33653;52.302;8.134;2022-12-29T06:46:10;0.70;;;0.70;;
47894;SDS011;33653;52.302;8.134;2022-12-29T06:48:38;0.60;;;0.60;;
47894;SDS011;33653;52.302;8.134;2022-12-29T06:51:11;0.70;;;0.70;;
47894;SDS011;33653;52.302;8.134;2022-12-29T06:53:38;0.50;;;0.50;;
47894;SDS011;33653;52.302;8.134;2022-12-29T06:56:07;1.23;;;0.70;;
47894;SDS011;33653;52.302;8.134;2022-12-29T06:58:35;0.73;;;0.73;;
47894;SDS011;33653;52.302;8.134;2022-12-29T07:01:03;0.63;;;0.63;;
47894;SDS011;33653;52.302;8.134;2022-12-29T07:03:49;2.00;;;0.98;;
47894;SDS011;33653;52.302;8.134;2022-12-29T07:06:18;0.70;;;0.70;;
47894;SDS011;33653;52.302;8.134;2022-12-29T07:08:46;0.60;;;0.60;;
47894;SDS011;33653;52.302;8.134;2022-12-29T07:11:14;1.60;;;0.77;;
47894;SDS011;33653;52.302;8.134;2022-12-29T07:13:43;3.03;;;1.38;;
47894;SDS011;33653;52.302;8.134;2022-12-29T07:16:11;1.90;;;0.65;;
47894;SDS011;33653;52.302;8.134;2022-12-29T07:18:39;1.15;;;0.75;;
47894;SDS011;33653;52.302;8.134;2022-12-29T07:21:07;0.60;;;0.60;;
47894;SDS011;33653;52.302;8.134;2022-12-29T07:23:35;0.77;;;0.77;;
47894;SDS011;33653;52.302;8.134;2022-12-29T07:26:03;0.85;;;0.85;;
47894;SDS011;33653;52.302;8.134;2022-12-29T07:28:35;5.97;;;0.90;;
47894;SDS011;33653;52.302;8.134;2022-12-29T07:31:05;1.00;;;0.85;;
47894;SDS011;33653;52.302;8.134;2022-12-29T07:33:37;1.20;;;0.70;;
47894;SDS011;33653;52.302;8.134;2022-12-29T07:36:05;0.70;;;0.70;;
47894;SDS011;33653;52.302;8.134;2022-12-29T07:38:33;1.63;;;1.13;;
47894;SDS011;33653;52.302;8.134;2022-12-29T07:41:03;6.13;;;1.00;;
47894;SDS011;33653;52.302;8.134;2022-12-29T07:43:31;3.47;;;1.20;;
47894;SDS011;33653;52.302;8.134;2022-12-29T07:46:22;0.88;;;0.88;;
47894;SDS011;33653;52.302;8.134;2022-12-29T07:49:10;1.15;;;1.08;;
47894;SDS011;33653;52.302;8.134;2022-12-29T07:51:38;1.00;;;0.90;;
47894;SDS011;33653;52.302;8.134;2022-12-29T07:54:06;0.82;;;0.82;;
47894;SDS011;33653;52.302;8.134;2022-12-29T07:56:35;3.50;;;0.90;;
47894;SDS011;33653;52.302;8.134;2022-12-29T07:59:03;0.70;;;0.70;;
47894;SDS011;33653;52.302;8.134;2022-12-29T08:01:31;1.02;;;0.90;;
47894;SDS011;33653;52.302;8.134;2022-12-29T08:03:59;1.05;;;1.02;;
47894;SDS011;33653;52.302;8.134;2022-12-29T08:06:27;3.92;;;0.90;;
47894;SDS011;33653;52.302;8.134;2022-12-29T08:08:57;0.95;;;0.70;;
47894;SDS011;33653;52.302;8.134;2022-12-29T08:11:34;0.98;;;0.80;;
47894;SDS011;33653;52.302;8.134;2022-12-29T08:14:03;0.73;;;0.73;;
47894;SDS011;33653;52.302;8.134;2022-12-29T08:16:31;4.97;;;1.00;;
47894;SDS011;33653;52.302;8.134;2022-12-29T08:18:59;1.95;;;1.13;;
47894;SDS011;33653;52.302;8.134;2022-12-29T08:21:27;1.83;;;1.13;;
47894;SDS011;33653;52.302;8.134;2022-12-29T08:23:55;1.13;;;0.85;;
47894;SDS011;33653;52.302;8.134;2022-12-29T08:26:24;1.40;;;0.80;;
47894;SDS011;33653;52.302;8.134;2022-12-29T08:28:52;2.10;;;0.95;;
47894;SDS011;33653;52.302;8.134;2022-12-29T08:31:22;0.70;;;0.70;;
47894;SDS011;33653;52.302;8.134;2022-12-29T08:33:50;2.78;;;1.10;;
47894;SDS011;33653;52.302;8.134;2022-12-29T08:36:19;1.65;;;1.00;;
47894;SDS011;33653;52.302;8.134;2022-12-29T08:38:47;1.58;;;0.82;;
47894;SDS011;33653;52.302;8.134;2022-12-29T08:41:14;1.40;;;1.02;;
47894;SDS011;33653;52.302;8.134;2022-12-29T08:43:45;0.82;;;0.82;;
47894;SDS011;33653;52.302;8.134;2022-12-29T08:48:43;3.47;;;1.00;;
47894;SDS011;33653;52.302;8.134;2022-12-29T08:51:11;0.73;;;0.73;;
47894;SDS011;33653;52.302;8.134;2022-12-29T08:53:39;2.67;;;0.80;;
47894;SDS011;33653;52.302;8.134;2022-12-29T08:56:08;2.05;;;1.10;;
47894;SDS011;33653;52.302;8.134;2022-12-29T08:58:44;1.00;;;0.90;;
47894;SDS011;33653;52.302;8.134;2022-12-29T09:01:12;2.83;;;0.95;;
47894;SDS011;33653;52.302;8.134;2022-12-29T09:03:41;2.95;;;0.60;;
47894;SDS011;33653;52.302;8.134;2022-12-29T09:06:29;2.55;;;1.00;;
47894;SDS011;33653;52.302;8.134;2022-12-29T09:09:04;0.80;;;0.80;;
47894;SDS011;33653;52.302;8.134;2022-12-29T09:11:31;1.27;;;0.77;;
47894;SDS011;33653;52.302;8.134;2022-12-29T09:14:00;1.50;;;0.85;;
47894;SDS011;33653;52.302;8.134;2022-12-29T09:16:28;1.58;;;1.23;;
47894;SDS011;33653;52.302;8.134;2022-12-29T09:18:56;0.70;;;0.70;;
47894;SDS011;33653;52.302;8.134;2022-12-29T09:21:24;3.75;;;1.02;;
47894;SDS011;33653;52.302;8.134;2022-12-29T09:23:52;1.25;;;1.13;;
47894;SDS011;33653;52.302;8.134;2022-12-29T09:26:20;0.93;;;0.90;;
47894;SDS011;33653;52.302;8.134;2022-12-29T09:28:48;2.92;;;1.00;;
47894;SDS011;33653;52.302;8.134;2022-12-29T09:31:16;2.28;;;0.90;;
47894;SDS011;33653;52.302;8.134;2022-12-29T09:33:44;1.15;;;1.00;;
47894;SDS011;33653;52.302;8.134;2022-12-29T09:36:12;2.92;;;0.82;;
47894;SDS011;33653;52.302;8.134;2022-12-29T09:38:39;3.38;;;1.38;;
47894;SDS011;33653;52.302;8.134;2022-12-29T09:41:12;2.50;;;1.02;;
47894;SDS011;33653;52.302;8.134;2022-12-29T09:43:59;1.45;;;1.13;;
47894;SDS011;33653;52.302;8.134;2022-12-29T09:47:12;3.70;;;0.70;;
47894;SDS011;33653;52.302;8.134;2022-12-29T09:49:48;2.58;;;0.90;;
47894;SDS011;33653;52.302;8.134;2022-12-29T09:52:22;2.40;;;0.90;;
47894;SDS011;33653;52.302;8.134;2022-12-29T09:54:56;2.92;;;0.80;;
47894;SDS011;33653;52.302;8.134;2022-12-29T10:00:36;1.75;;;0.88;;
47894;SDS011;33653;52.302;8.134;2022-12-29T10:03:22;2.50;;;1.00;;
47894;SDS011;33653;52.302;8.134;2022-12-29T10:08:30;4.72;;;1.08;;
47894;SDS011;33653;52.302;8.134;2022-12-29T10:25:50;2.20;;;0.77;;
47894;SDS011;33653;52.302;8.134;2022-12-29T10:31:13;2.35;;;1.05;;
47894;SDS011;33653;52.302;8.134;2022-12-29T10:33:49;4.22;;;1.10;;
47894;SDS011;33653;52.302;8.134;2022-12-29T10:36:27;0.75;;;0.73;;
47894;SDS011;33653;52.302;8.134;2022-12-29T10:39:16;1.55;;;0.75;;
47894;SDS011;33653;52.302;8.134;2022-12-29T10:42:11;3.20;;;0.75;;
47894;SDS011;33653;52.302;8.134;2022-12-29T10:44:41;2.83;;;0.77;;
47894;SDS011;33653;52.302;8.134;2022-12-29T10:47:11;1.38;;;1.13;;
47894;SDS011;33653;52.302;8.134;2022-12-29T10:49:46;7.03;;;0.60;;
47894;SDS011;33653;52.302;8.134;2022-12-29T10:52:16;3.35;;;1.17;;
47894;SDS011;33653;52.302;8.134;2022-12-29T10:59:51;3.53;;;0.90;;
47894;SDS011;33653;52.302;8.134;2022-12-29T11:07:58;4.72;;;1.25;;
47894;SDS011;33653;52.302;8.134;2022-12-29T11:13:14;3.92;;;1.10;;
47894;SDS011;33653;52.302;8.134;2022-12-29T11:15:44;1.13;;;0.63;;
47894;SDS011;33653;52.302;8.134;2022-12-29T11:20:58;2.28;;;0.85;;
47894;SDS011;33653;52.302;8.134;2022-12-29T11:23:33;1.05;;;0.70;;
47894;SDS011;33653;52.302;8.134;2022-12-29T11:26:07;3.50;;;1.38;;
47894;SDS011;33653;52.302;8.134;2022-12-29T11:28:44;2.25;;;1.10;;
47894;SDS011;33653;52.302;8.134;2022-12-29T11:31:17;5.05;;;1.77;;
47894;SDS011;33653;52.302;8.134;2022-12-29T11:33:48;2.10;;;1.05;;
47894;SDS011;33653;52.302;8.134;2022-12-29T11:36:17;0.70;;;0.70;;
47894;SDS011;33653;52.302;8.134;2022-12-29T11:38:49;3.45;;;1.02;;
47894;SDS011;33653;52.302;8.134;2022-12-29T11:41:22;2.35;;;1.05;;
47894;SDS011;33653;52.302;8.134;2022-12-29T11:43:53;1.42;;;0.80;;
47894;SDS011;33653;52.302;8.134;2022-12-29T11:46:30;2.58;;;1.10;;
47894;SDS011;33653;52.302;8.134;2022-12-29T11:49:03;1.17;;;0.88;;
47894;SDS011;33653;52.302;8.134;2022-12-29T11:51:37;1.13;;;0.85;;
47894;SDS011;33653;52.302;8.134;2022-12-29T11:54:31;0.70;;;0.65;;
47894;SDS011;33653;52.302;8.134;2022-12-29T11:57:13;4.30;;;1.50;;
47894;SDS011;33653;52.302;8.134;2022-12-29T11:59:48;4.38;;;1.20;;
47894;SDS011;33653;52.302;8.134;2022-12-29T12:05:21;4.50;;;1.27;;
47894;SDS011;33653;52.302;8.134;2022-12-29T12:08:24;1.80;;;0.80;;
47894;SDS011;33653;52.302;8.134;2022-12-29T12:11:06;1.48;;;0.80;;
47894;SDS011;33653;52.302;8.134;2022-12-29T12:16:15;0.55;;;0.55;;
47894;SDS011;33653;52.302;8.134;2022-12-29T12:19:09;1.95;;;1.15;;
47894;SDS011;33653;52.302;8.134;2022-12-29T12:21:48;3.30;;;1.00;;
47894;SDS011;33653;52.302;8.134;2022-12-29T12:24:34;0.93;;;0.77;;
47894;SDS011;33653;52.302;8.134;2022-12-29T12:27:30;0.80;;;0.80;;
47894;SDS011;33653;52.302;8.134;2022-12-29T12:32:53;2.92;;;0.95;;
47894;SDS011;33653;52.302;8.134;2022-12-29T12:38:17;1.50;;;1.00;;
47894;SDS011;33653;52.302;8.134;2022-12-29T12:41:51;4.97;;;0.85;;
47894;SDS011;33653;52.302;8.134;2022-12-29T12:46:51;0.55;;;0.55;;
47894;SDS011;33653;52.302;8.134;2022-12-29T12:58:34;2.17;;;0.80;;
47894;SDS011;33653;52.302;8.134;2022-12-29T13:01:51;3.30;;;1.13;;
47894;SDS011;33653;52.302;8.134;2022-12-29T13:11:04;3.70;;;1.13;;
47894;SDS011;33653;52.302;8.134;2022-12-29T13:13:54;2.60;;;0.98;;
47894;SDS011;33653;52.302;8.134;2022-12-29T13:17:19;1.25;;;1.02;;
47894;SDS011;33653;52.302;8.134;2022-12-29T13:19:41;0.90;;;0.90;;
47894;SDS011;33653;52.302;8.134;2022-12-29T13:22:14;1.90;;;1.05;;
47894;SDS011;33653;52.302;8.134;2022-12-29T13:24:55;2.63;;;1.27;;
47894;SDS011;33653;52.302;8.134;2022-12-29T13:27:44;6.60;;;1.27;;
47894;SDS011;33653;52.302;8.134;2022-12-29T13:30:17;6.22;;;2.33;;
47894;SDS011;33653;52.302;8.134;2022-12-29T13:32:49;3.80;;;1.70;;
47894;SDS011;33653;52.302;8.134;2022-12-29T13:38:36;3.45;;;1.60;;
47894;SDS011;33653;52.302;8.134;2022-12-29T13:41:25;1.75;;;0.80;;
47894;SDS011;33653;52.302;8.134;2022-12-29T13:43:57;2.83;;;1.40;;
47894;SDS011;33653;52.302;8.134;2022-12-29T13:47:02;1.73;;;0.80;;
47894;SDS011;33653;52.302;8.134;2022-12-29T13:49:23;3.00;;;0.98;;
47894;SDS011;33653;52.302;8.134;2022-12-29T13:51:55;0.88;;;0.80;;
47894;SDS011;33653;52.302;8.134;2022-12-29T14:00:10;1.67;;;1.00;;
47894;SDS011;33653;52.302;8.134;2022-12-29T14:07:58;4.35;;;1.40;;
47894;SDS011;33653;52.302;8.134;2022-12-29T14:13:06;1.20;;;1.08;;
47894;SDS011;33653;52.302;8.134;2022-12-29T14:15:40;2.97;;;0.90;;
47894;SDS011;33653;52.302;8.134;2022-12-29T14:20:49;2.17;;;1.10;;
47894;SDS011;33653;52.302;8.134;2022-12-29T14:23:41;1.05;;;0.63;;
47894;SDS011;33653;52.302;8.134;2022-12-29T14:26:12;1.23;;;1.10;;
47894;SDS011;33653;52.302;8.134;2022-12-29T14:28:45;2.03;;;1.15;;
47894;SDS011;33653;52.302;8.134;2022-12-29T14:36:39;3.75;;;1.10;;
47894;SDS011;33653;52.302;8.134;2022-12-29T14:45:21;0.70;;;0.70;;
47894;SDS011;33653;52.302;8.134;2022-12-29T14:47:53;6.70;;;1.65;;
47894;SDS011;33653;52.302;8.134;2022-12-29T14:50:37;3.90;;;1.60;;
47894;SDS011;33653;52.302;8.134;2022-12-29T14:56:13;2.55;;;0.98;;
47894;SDS011;33653;52.302;8.134;2022-12-29T14:58:53;3.97;;;1.20;;
47894;SDS011;33653;52.302;8.134;2022-12-29T15:04:30;1.45;;;1.10;;
47894;SDS011;33653;52.302;8.134;2022-12-29T15:06:59;1.67;;;1.20;;
47894;SDS011;33653;52.302;8.134;2022-12-29T15:15:00;4.80;;;1.13;;
47894;SDS011;33653;52.302;8.134;2022-12-29T15:17:32;2.53;;;1.52;;
47894;SDS011;33653;52.302;8.134;2022-12-29T15:20:22;3.00;;;1.55;;
47894;SDS011;33653;52.302;8.134;2022-12-29T15:25:27;2.88;;;1.38;;
47894;SDS011;33653;52.302;8.134;2022-12-29T15:27:57;1.80;;;1.10;;
47894;SDS011;33653;52.302;8.134;2022-12-29T15:30:28;2.85;;;1.38;;
47894;SDS011;33653;52.302;8.134;2022-12-29T15:32:56;3.38;;;1.25;;
47894;SDS011;33653;52.302;8.134;2022-12-29T15:35:25;4.75;;;1.75;;
47894;SDS011;33653;52.302;8.134;2022-12-29T15:38:12;6.82;;;1.30;;
47894;SDS011;33653;52.302;8.134;2022-12-29T15:40:43;4.93;;;1.63;;
47894;SDS011;33653;52.302;8.134;2022-12-29T15:43:28;6.55;;;1.30;;
47894;SDS011;33653;52.302;8.134;2022-12-29T15:46:00;1.23;;;1.13;;
47894;SDS011;33653;52.302;8.134;2022-12-29T15:48:28;2.00;;;0.93;;
47894;SDS011;33653;52.302;8.134;2022-12-29T15:50:58;4.97;;;1.98;;
47894;SDS011;33653;52.302;8.134;2022-12-29T15:53:28;1.63;;;1.23;;
47894;SDS011;33653;52.302;8.134;2022-12-29T15:55:59;3.35;;;1.10;;
47894;SDS011;33653;52.302;8.134;2022-12-29T15:58:39;2.33;;;1.02;;
47894;SDS011;33653;52.302;8.134;2022-12-29T16:03:46;4.95;;;1.65;;
47894;SDS011;33653;52.302;8.134;2022-12-29T16:06:25;2.45;;;0.82;;
47894;SDS011;33653;52.302;8.134;2022-12-29T16:09:04;3.97;;;0.90;;
47894;SDS011;33653;52.302;8.134;2022-12-29T16:11:36;2.75;;;1.13;;
47894;SDS011;33653;52.302;8.134;2022-12-29T16:14:07;1.10;;;1.00;;
47894;SDS011;33653;52.302;8.134;2022-12-29T16:16:44;1.00;;;1.00;;
47894;SDS011;33653;52.302;8.134;2022-12-29T16:22:11;3.20;;;1.02;;
47894;SDS011;33653;52.302;8.134;2022-12-29T16:25:11;1.33;;;1.00;;
47894;SDS011;33653;52.302;8.134;2022-12-29T16:35:21;7.07;;;3.53;;
47894;SDS011;33653;52.302;8.134;2022-12-29T16:38:16;1.48;;;0.95;;
47894;SDS011;33653;52.302;8.134;2022-12-29T16:41:05;5.75;;;1.00;;
47894;SDS011;33653;52.302;8.134;2022-12-29T16:49:54;5.72;;;1.40;;
47894;SDS011;33653;52.302;8.134;2022-12-29T16:52:49;5.45;;;1.30;;
47894;SDS011;33653;52.302;8.134;2022-12-29T16:55:25;3.65;;;1.35;;
47894;SDS011;33653;52.302;8.134;2022-12-29T16:57:53;1.65;;;1.20;;
47894;SDS011;33653;52.302;8.134;2022-12-29T17:00:26;4.53;;;1.77;;
47894;SDS011;33653;52.302;8.134;2022-12-29T17:02:56;5.47;;;2.25;;
47894;SDS011;33653;52.302;8.134;2022-12-29T17:05:26;8.00;;;2.53;;
47894;SDS011;33653;52.302;8.134;2022-12-29T17:07:54;4.25;;;1.77;;
47894;SDS011;33653;52.302;8.134;2022-12-29T17:10:27;3.50;;;1.42;;
47894;SDS011;33653;52.302;8.134;2022-12-29T17:13:14;1.48;;;1.23;;
47894;SDS011;33653;52.302;8.134;2022-12-29T17:15:42;1.13;;;1.05;;
47894;SDS011;33653;52.302;8.134;2022-12-29T17:18:10;3.28;;;1.45;;
47894;SDS011;33653;52.302;8.134;2022-12-29T17:20:40;1.90;;;1.10;;
47894;SDS011;33653;52.302;8.134;2022-12-29T17:23:14;2.85;;;1.48;;
47894;SDS011;33653;52.302;8.134;2022-12-29T17:25:52;5.47;;;2.35;;
47894;SDS011;33653;52.302;8.134;2022-12-29T17:28:24;5.45;;;1.30;;
47894;SDS011;33653;52.302;8.134;2022-12-29T17:31:01;3.70;;;1.52;;
47894;SDS011;33653;52.302;8.134;2022-12-29T17:33:32;4.25;;;1.90;;
47894;SDS011;33653;52.302;8.134;2022-12-29T17:36:03;3.78;;;1.30;;
47894;SDS011;33653;52.302;8.134;2022-12-29T17:38:33;1.73;;;1.25;;
47894;SDS011;33653;52.302;8.134;2022-12-29T17:41:03;5.00;;;1.42;;
47894;SDS011;33653;52.302;8.134;2022-12-29T17:43:32;1.85;;;1.20;;
47894;SDS011;33653;52.302;8.134;2022-12-29T17:46:04;4.70;;;1.50;;
47894;SDS011;33653;52.302;8.134;2022-12-29T17:51:01;1.27;;;1.20;;
47894;SDS011;33653;52.302;8.134;2022-12-29T17:53:30;1.85;;;1.13;;
47894;SDS011;33653;52.302;8.134;2022-12-29T17:55:57;5.80;;;1.02;;
47894;SDS011;33653;52.302;8.134;2022-12-29T17:58:26;1.92;;;1.20;;
47894;SDS011;33653;52.302;8.134;2022-12-29T18:00:58;1.80;;;1.08;;
47894;SDS011;33653;52.302;8.134;2022-12-29T18:03:38;1.67;;;0.82;;
47894;SDS011;33653;52.302;8.134;2022-12-29T18:06:08;1.58;;;1.48;;
47894;SDS011;33653;52.302;8.134;2022-12-29T18:08:38;1.40;;;1.30;;
47894;SDS011;33653;52.302;8.134;2022-12-29T18:11:23;3.25;;;1.40;;
47894;SDS011;33653;52.302;8.134;2022-12-29T18:13:52;2.75;;;1.90;;
47894;SDS011;33653;52.302;8.134;2022-12-29T18:16:21;3.47;;;1.20;;
47894;SDS011;33653;52.302;8.134;2022-12-29T18:18:49;5.40;;;2.15;;
47894;SDS011;33653;52.302;8.134;2022-12-29T18:21:18;1.02;;;0.98;;
47894;SDS011;33653;52.302;8.134;2022-12-29T18:23:47;4.22;;;1.00;;
47894;SDS011;33653;52.302;8.134;2022-12-29T18:26:16;0.90;;;0.90;;
47894;SDS011;33653;52.302;8.134;2022-12-29T18:28:54;1.38;;;1.05;;
47894;SDS011;33653;52.302;8.134;2022-12-29T18:31:24;4.40;;;1.42;;
47894;SDS011;33653;52.302;8.134;2022-12-29T18:33:54;2.25;;;1.23;;